Time;durP1;ratioP1;P1;durP2;ratioP2;P2;SDS_P1;SDS_P2;PMS_P1;PMS_P2;Temp;Humidity;BMP_temperature;BMP_pressure;BME280_temperature;BME280_humidity;BME280_pressure;Samples;Min_cycle;Max_cycle;Signal;HPM_P1;HPM_P2
2023/04/29 00:00:11;;;;;;;6.18;4.15;;;6.90;99.90;;;;;;5092868;28;20131;-81
2023/04/29 00:02:41;;;;;;;8.60;4.82;;;6.90;99.90;;;;;;5092828;28;20500;-79
2023/04/29 00:05:09;;;;;;;8.45;4.40;;;6.90;99.90;;;;;;5094325;28;20044;-80
2023/04/29 00:07:37;;;;;;;7.85;4.20;;;6.80;99.90;;;;;;5093758;28;20097;-80
2023/04/29 00:10:04;;;;;;;8.13;4.70;;;6.80;99.90;;;;;;5075398;28;20044;-80
2023/04/29 00:12:34;;;;;;;6.32;3.95;;;6.80;99.90;;;;;;5113013;28;20079;-80
2023/04/29 00:15:03;;;;;;;10.30;4.72;;;6.80;99.90;;;;;;5112261;28;20458;-80
2023/04/29 00:17:33;;;;;;;9.43;4.30;;;6.90;99.90;;;;;;5113607;28;20130;-79
2023/04/29 00:20:01;;;;;;;11.48;4.35;;;6.90;99.90;;;;;;5112543;28;20076;-79
2023/04/29 00:22:31;;;;;;;14.98;5.63;;;6.90;99.90;;;;;;5112117;28;20469;-80
2023/04/29 00:24:58;;;;;;;13.23;4.70;;;7.00;99.90;;;;;;5113525;28;20143;-80
2023/04/29 00:27:26;;;;;;;15.23;5.00;;;7.00;99.90;;;;;;5113827;28;20051;-79
2023/04/29 00:29:55;;;;;;;12.60;5.68;;;7.00;99.90;;;;;;5112839;28;20044;-80
2023/04/29 00:32:22;;;;;;;10.13;3.90;;;7.00;99.90;;;;;;5113858;28;20126;-80
2023/04/29 00:34:50;;;;;;;20.23;4.85;;;7.00;99.90;;;;;;5112165;28;20539;-79
2023/04/29 00:37:18;;;;;;;9.38;4.43;;;7.00;99.90;;;;;;5113611;28;20419;-78
2023/04/29 00:39:45;;;;;;;9.77;4.57;;;7.00;99.90;;;;;;5112577;28;20407;-79
2023/04/29 00:42:12;;;;;;;6.95;4.60;;;6.90;99.90;;;;;;5110865;28;21112;-79
2023/04/29 00:44:40;;;;;;;10.43;5.90;;;6.80;99.90;;;;;;5095521;28;20048;-80
2023/04/29 00:47:10;;;;;;;13.38;6.03;;;6.80;99.90;;;;;;5110731;28;20576;-79
2023/04/29 00:49:38;;;;;;;18.38;7.10;;;6.70;99.90;;;;;;5112299;28;20054;-79
2023/04/29 00:52:07;;;;;;;18.67;7.82;;;6.60;99.90;;;;;;5111946;28;20415;-79
2023/04/29 00:54:35;;;;;;;16.45;8.10;;;6.50;99.90;;;;;;5110861;28;20093;-81
2023/04/29 00:57:05;;;;;;;17.70;7.28;;;6.40;99.90;;;;;;5111724;28;20142;-80
2023/04/29 00:59:33;;;;;;;14.50;7.65;;;6.40;99.90;;;;;;5110869;28;20052;-80
2023/04/29 01:02:02;;;;;;;25.88;9.65;;;6.40;99.90;;;;;;5112104;28;20070;-80
2023/04/29 01:04:31;;;;;;;12.82;5.13;;;6.40;99.90;;;;;;5111789;28;20043;-79
2023/04/29 01:07:05;;;;;;;13.10;4.65;;;6.40;99.90;;;;;;5107277;28;20080;-79
2023/04/29 01:09:47;;;;;;;7.97;4.63;;;6.40;99.90;;;;;;5110885;28;20044;-79
2023/04/29 01:12:30;;;;;;;8.15;3.13;;;6.40;99.90;;;;;;5075898;28;20052;-79
2023/04/29 01:15:04;;;;;;;6.40;3.10;;;6.30;99.90;;;;;;5107712;28;20082;-80
2023/04/29 01:17:38;;;;;;;6.45;2.40;;;6.30;99.90;;;;;;5111547;28;20492;-79
2023/04/29 01:20:10;;;;;;;5.68;2.20;;;6.20;99.90;;;;;;5094431;28;20146;-80
2023/04/29 01:22:38;;;;;;;3.97;2.25;;;6.20;99.90;;;;;;5109978;28;20538;-81
2023/04/29 01:25:08;;;;;;;10.20;2.42;;;6.20;99.90;;;;;;5111563;28;20036;-80
2023/04/29 01:28:05;;;;;;;6.05;2.15;;;6.30;99.90;;;;;;5111391;28;20580;-81
2023/04/29 01:30:42;;;;;;;2.55;1.92;;;6.30;99.90;;;;;;5094659;28;20120;-80
2023/04/29 01:33:17;;;;;;;10.13;3.08;;;6.30;99.90;;;;;;5093291;28;20055;-83
2023/04/29 01:36:00;;;;;;;2.97;1.70;;;6.20;99.90;;;;;;5111558;28;20121;-83
2023/04/29 01:38:37;;;;;;;2.50;1.77;;;6.20;99.90;;;;;;5093901;28;20515;-83
2023/04/29 01:41:16;;;;;;;3.95;2.22;;;6.20;99.90;;;;;;5111403;28;20051;-83
2023/04/29 01:43:50;;;;;;;7.60;1.88;;;6.10;99.90;;;;;;5094128;28;20055;-82
2023/04/29 01:46:22;;;;;;;3.97;1.85;;;6.10;99.90;;;;;;5087930;28;20071;-84
2023/04/29 01:48:54;;;;;;;2.70;1.98;;;6.00;99.90;;;;;;5091016;28;20454;-80
2023/04/29 01:51:21;;;;;;;7.68;2.17;;;5.90;99.90;;;;;;5090651;28;20040;-80
2023/04/29 01:53:49;;;;;;;3.10;1.70;;;5.90;99.90;;;;;;5073718;28;20046;-80
2023/04/29 01:56:20;;;;;;;3.15;1.70;;;5.90;99.90;;;;;;5091498;28;20400;-81
2023/04/29 01:58:59;;;;;;;5.40;2.00;;;5.90;99.90;;;;;;5093835;28;20047;-81
2023/04/29 02:01:59;;;;;;;4.63;2.08;;;5.80;99.90;;;;;;5099685;28;20047;-82
2023/04/29 02:04:27;;;;;;;3.42;1.80;;;5.80;99.90;;;;;;5087553;28;20043;-80
2023/04/29 02:06:55;;;;;;;3.15;1.67;;;5.80;99.90;;;;;;5090562;28;20131;-80
2023/04/29 02:09:22;;;;;;;4.35;2.25;;;5.70;99.90;;;;;;5073462;28;20083;-79
2023/04/29 02:11:56;;;;;;;3.40;1.67;;;5.70;99.90;;;;;;5073431;28;20512;-79
2023/04/29 02:14:24;;;;;;;2.33;1.80;;;5.70;99.90;;;;;;5085416;28;20055;-80
2023/04/29 02:16:53;;;;;;;4.20;2.03;;;5.70;99.90;;;;;;5090123;28;20101;-79
2023/04/29 02:19:21;;;;;;;2.78;2.10;;;5.60;99.90;;;;;;5089021;28;20142;-80
2023/04/29 02:21:53;;;;;;;2.72;1.88;;;5.60;99.90;;;;;;5093400;28;20093;-81
2023/04/29 02:24:20;;;;;;;2.60;2.00;;;5.60;99.90;;;;;;5110507;28;20093;-80
2023/04/29 02:26:48;;;;;;;4.75;1.67;;;5.60;99.90;;;;;;5110845;28;20044;-80
2023/04/29 02:29:17;;;;;;;3.75;2.00;;;5.60;99.90;;;;;;5077067;28;20044;-80
2023/04/29 02:31:45;;;;;;;4.03;1.67;;;5.50;99.90;;;;;;5099204;28;20047;-79
2023/04/29 02:34:12;;;;;;;5.10;2.40;;;5.60;99.90;;;;;;5110442;28;20051;-81
2023/04/29 02:36:40;;;;;;;1.95;1.63;;;5.60;99.90;;;;;;5109591;28;20117;-81
2023/04/29 02:39:07;;;;;;;2.22;1.90;;;5.50;99.90;;;;;;5111544;28;20093;-81
2023/04/29 02:41:35;;;;;;;1.73;1.50;;;5.50;99.90;;;;;;5110170;28;20043;-81
2023/04/29 02:44:02;;;;;;;2.92;1.63;;;5.50;99.90;;;;;;5110317;28;20060;-81
2023/04/29 02:46:32;;;;;;;2.50;1.50;;;5.50;99.90;;;;;;5093432;28;20047;-81
2023/04/29 02:48:59;;;;;;;2.13;1.50;;;5.60;99.90;;;;;;5095966;28;20048;-81
2023/04/29 02:51:27;;;;;;;1.20;1.10;;;5.60;99.90;;;;;;5114867;28;20061;-81
2023/04/29 02:53:55;;;;;;;3.47;1.25;;;5.60;99.90;;;;;;5097672;28;20075;-81
2023/04/29 02:56:23;;;;;;;3.40;1.65;;;5.70;99.90;;;;;;5115373;28;20053;-81
2023/04/29 02:58:50;;;;;;;1.95;1.50;;;5.70;99.90;;;;;;5114102;28;20055;-80
2023/04/29 03:01:17;;;;;;;3.83;1.50;;;5.80;99.90;;;;;;5114402;28;20048;-80
2023/04/29 03:03:47;;;;;;;4.35;1.88;;;5.70;99.90;;;;;;5097164;28;20063;-80
2023/04/29 03:06:16;;;;;;;3.13;1.85;;;5.80;99.90;;;;;;5114061;28;20126;-80
2023/04/29 03:08:43;;;;;;;2.15;1.83;;;5.80;99.90;;;;;;5096906;28;20047;-81
2023/04/29 03:11:11;;;;;;;2.75;1.70;;;5.80;99.90;;;;;;5112801;28;20050;-81
2023/04/29 03:13:38;;;;;;;3.47;1.83;;;5.80;99.90;;;;;;5113870;28;20078;-81
2023/04/29 03:16:07;;;;;;;5.15;1.50;;;5.80;99.90;;;;;;5096955;28;20093;-79
2023/04/29 03:18:34;;;;;;;2.92;1.48;;;5.80;99.90;;;;;;5113554;28;20051;-79
2023/04/29 03:21:04;;;;;;;4.95;1.80;;;5.90;99.90;;;;;;5114595;28;20059;-80
2023/04/29 03:23:31;;;;;;;4.22;1.70;;;6.00;99.90;;;;;;5096824;28;20074;-82
2023/04/29 03:25:59;;;;;;;2.60;1.70;;;6.00;99.90;;;;;;5112730;28;20043;-81
2023/04/29 03:28:26;;;;;;;1.15;1.05;;;6.10;99.90;;;;;;5113541;28;20043;-81
2023/04/29 03:30:55;;;;;;;2.08;1.20;;;6.00;99.90;;;;;;5112654;28;20052;-80
2023/04/29 03:33:23;;;;;;;1.88;1.38;;;6.00;99.90;;;;;;5113577;28;20423;-81
2023/04/29 03:35:51;;;;;;;1.98;1.30;;;6.00;99.90;;;;;;5096829;28;20044;-80
2023/04/29 03:38:19;;;;;;;5.20;1.95;;;6.10;99.90;;;;;;5114668;28;20052;-80
2023/04/29 03:40:48;;;;;;;2.92;1.50;;;6.20;99.90;;;;;;5113829;28;20134;-80
2023/04/29 03:43:17;;;;;;;3.40;1.40;;;6.20;99.90;;;;;;5096666;28;20133;-80
2023/04/29 03:45:45;;;;;;;3.05;1.35;;;6.20;99.90;;;;;;5095049;28;20063;-80
2023/04/29 03:48:17;;;;;;;3.27;0.90;;;6.10;99.90;;;;;;5113497;28;20134;-81
2023/04/29 03:50:44;;;;;;;1.48;1.08;;;6.00;99.90;;;;;;5113586;28;20039;-81
2023/04/29 03:53:12;;;;;;;5.22;1.48;;;6.00;99.90;;;;;;5092383;28;20058;-80
2023/04/29 03:55:41;;;;;;;1.80;1.20;;;6.10;99.90;;;;;;5096828;28;20145;-81
2023/04/29 03:58:10;;;;;;;1.40;1.25;;;6.30;99.90;;;;;;5113047;28;20059;-80
2023/04/29 04:00:37;;;;;;;2.33;1.00;;;6.30;99.90;;;;;;5111673;28;20053;-81
2023/04/29 04:03:09;;;;;;;1.35;1.10;;;6.40;99.90;;;;;;5113107;28;20052;-80
2023/04/29 04:05:38;;;;;;;1.25;1.15;;;6.60;99.90;;;;;;5113198;28;20134;-80
2023/04/29 04:08:12;;;;;;;4.43;1.20;;;6.70;99.90;;;;;;5113336;28;20055;-80
2023/04/29 04:10:51;;;;;;;3.10;1.45;;;6.80;99.90;;;;;;5108437;28;20089;-82
2023/04/29 04:13:42;;;;;;;15.23;1.40;;;6.90;99.90;;;;;;5112673;28;20054;-83
2023/04/29 04:16:10;;;;;;;4.72;1.33;;;7.00;99.90;;;;;;5113023;28;20142;-83
2023/04/29 04:18:38;;;;;;;5.28;1.30;;;7.10;99.90;;;;;;5110526;28;20419;-83
2023/04/29 04:21:06;;;;;;;1.83;1.33;;;7.10;99.90;;;;;;5089085;28;20551;-82
2023/04/29 04:23:39;;;;;;;1.60;0.73;;;7.20;99.90;;;;;;5092034;28;20480;-81
2023/04/29 04:26:09;;;;;;;;;;;7.30;99.90;;;;;;5077045;28;20766;-81
2023/04/29 04:29:09;;;;;;;1.35;0.70;;;7.40;99.90;;;;;;5094087;28;20026;-80
2023/04/29 04:32:04;;;;;;;1.65;1.55;;;7.50;99.90;;;;;;5098519;28;20059;-81
2023/04/29 04:34:32;;;;;;;1.55;0.63;;;7.50;99.90;;;;;;5108650;28;20047;-81
2023/04/29 04:37:02;;;;;;;0.80;0.80;;;7.50;99.90;;;;;;5095788;28;20075;-78
2023/04/29 04:39:31;;;;;;;2.13;0.70;;;7.30;99.90;;;;;;5092044;28;20055;-78
2023/04/29 04:42:02;;;;;;;1.35;0.93;;;7.30;99.90;;;;;;5109159;28;20084;-78
2023/04/29 04:44:32;;;;;;;1.45;1.00;;;7.30;99.90;;;;;;5098905;28;20061;-78
2023/04/29 04:47:08;;;;;;;0.70;0.65;;;7.30;99.90;;;;;;5106296;28;20048;-77
2023/04/29 04:50:03;;;;;;;1.80;1.20;;;7.40;99.90;;;;;;5104289;28;20575;-77
2023/04/29 04:52:31;;;;;;;1.00;0.95;;;7.30;99.90;;;;;;5112409;28;20051;-77
2023/04/29 04:55:16;;;;;;;2.03;0.90;;;7.20;99.90;;;;;;5086564;28;20054;-77
2023/04/29 04:57:49;;;;;;;2.63;1.20;;;7.10;99.90;;;;;;5104807;28;20510;-78
2023/04/29 05:00:18;;;;;;;1.27;1.00;;;7.20;99.90;;;;;;5088140;28;20071;-79
2023/04/29 05:02:45;;;;;;;0.90;0.90;;;7.30;99.90;;;;;;5110742;28;20064;-78
2023/04/29 05:05:13;;;;;;;2.75;1.10;;;7.50;99.90;;;;;;5122283;28;20431;-77
2023/04/29 05:07:42;;;;;;;2.45;1.45;;;7.60;99.90;;;;;;5123243;28;20040;-76
2023/04/29 05:10:13;;;;;;;1.40;0.93;;;7.70;99.90;;;;;;5110703;28;20077;-84
2023/04/29 05:12:49;;;;;;;1.13;0.90;;;7.60;99.90;;;;;;5108120;28;20418;-78
2023/04/29 05:15:17;;;;;;;1.25;1.10;;;7.50;99.90;;;;;;5125518;28;20123;-81
2023/04/29 05:17:47;;;;;;;0.80;0.77;;;7.60;99.90;;;;;;5087414;28;20044;-87
2023/04/29 05:20:16;;;;;;;1.27;0.90;;;7.80;99.90;;;;;;5092180;28;20048;-84
2023/04/29 05:23:09;;;;;;;1.08;0.90;;;7.90;99.90;;;;;;5094403;28;20079;-82
2023/04/29 05:25:46;;;;;;;2.17;1.38;;;8.10;99.90;;;;;;5112331;28;20085;-80
2023/04/29 05:28:15;;;;;;;2.22;1.20;;;8.70;99.90;;;;;;5089829;28;20048;-80
2023/04/29 05:30:43;;;;;;;3.67;1.27;;;8.90;99.90;;;;;;5096477;28;20099;-79
2023/04/29 05:33:11;;;;;;;1.88;1.17;;;8.90;99.90;;;;;;5091090;28;20055;-80
2023/04/29 05:35:39;;;;;;;2.60;1.00;;;9.10;99.90;;;;;;5101439;28;20118;-80
2023/04/29 05:38:07;;;;;;;1.52;0.82;;;9.40;99.90;;;;;;5094025;28;20238;-83
2023/04/29 05:40:42;;;;;;;5.22;1.23;;;9.90;99.90;;;;;;5109738;28;20040;-85
2023/04/29 05:43:29;;;;;;;3.05;0.85;;;10.40;99.90;;;;;;5111372;28;20050;-84
2023/04/29 05:45:57;;;;;;;3.05;1.50;;;10.80;99.90;;;;;;5095042;28;20044;-85
2023/04/29 05:48:25;;;;;;;1.50;1.40;;;11.20;99.90;;;;;;5096960;28;20131;-86
2023/04/29 05:50:53;;;;;;;3.58;1.20;;;11.20;99.90;;;;;;5109022;28;20150;-84
2023/04/29 05:53:20;;;;;;;1.75;1.65;;;11.10;99.90;;;;;;5079741;28;20048;-83
2023/04/29 05:55:49;;;;;;;4.13;1.27;;;11.00;99.90;;;;;;5080002;28;20044;-83
2023/04/29 05:58:17;;;;;;;4.18;1.92;;;11.30;99.90;;;;;;5098787;28;20162;-84
2023/04/29 06:00:48;;;;;;;3.25;1.48;;;11.40;99.90;;;;;;5097954;28;20052;-81
2023/04/29 06:03:21;;;;;;;1.60;1.50;;;11.80;99.90;;;;;;5094101;27;20043;-82
2023/04/29 06:05:53;;;;;;;1.70;1.60;;;11.90;99.90;;;;;;5105694;27;20048;-78
2023/04/29 06:08:41;;;;;;;1.77;1.65;;;12.00;99.90;;;;;;5110192;28;20466;-78
2023/04/29 06:11:17;;;;;;;11.02;2.22;;;11.40;99.90;;;;;;5106080;27;20054;-83
2023/04/29 06:13:44;;;;;;;3.65;1.67;;;11.00;99.90;;;;;;5112453;27;20412;-86
2023/04/29 06:16:13;;;;;;;3.63;1.85;;;10.80;99.90;;;;;;5109546;28;20044;-86
2023/04/29 06:18:40;;;;;;;2.15;1.92;;;10.10;99.90;;;;;;5111820;28;20147;-86
2023/04/29 06:21:08;;;;;;;2.53;1.73;;;9.70;99.90;;;;;;5094916;28;20046;-88
2023/04/29 06:23:37;;;;;;;3.97;1.50;;;9.60;99.90;;;;;;5093422;28;20047;-80
2023/04/29 06:26:10;;;;;;;3.53;1.55;;;9.50;99.90;;;;;;5088274;28;20036;-82
2023/04/29 06:28:38;;;;;;;1.65;1.20;;;9.40;99.90;;;;;;5116806;28;20071;-84
2023/04/29 06:31:06;;;;;;;1.90;1.20;;;9.30;99.90;;;;;;5087674;28;20046;-84
2023/04/29 06:33:34;;;;;;;2.85;1.55;;;9.30;99.90;;;;;;5090909;28;20465;-82
2023/04/29 06:36:03;;;;;;;3.92;1.30;;;9.20;99.90;;;;;;5097173;28;20044;-84
2023/04/29 06:38:48;;;;;;;2.72;1.50;;;9.10;99.90;;;;;;5099299;28;20043;-81
2023/04/29 06:41:33;;;;;;;3.03;1.55;;;8.90;99.90;;;;;;5097495;28;20039;-84
2023/04/29 06:44:34;;;;;;;2.70;1.50;;;8.70;99.90;;;;;;5084621;28;20044;-83
2023/04/29 06:47:20;;;;;;;2.25;1.50;;;8.70;99.90;;;;;;5083085;28;20039;-83
2023/04/29 06:50:08;;;;;;;4.20;1.95;;;8.70;99.90;;;;;;5104187;28;20423;-84
2023/04/29 06:52:35;;;;;;;6.85;1.75;;;8.90;99.90;;;;;;5098636;28;20438;-82
2023/04/29 06:55:04;;;;;;;4.00;2.05;;;8.90;99.90;;;;;;5103568;28;20415;-84
2023/04/29 06:57:33;;;;;;;2.90;2.22;;;8.80;99.90;;;;;;5100509;28;20048;-82
2023/04/29 07:00:02;;;;;;;6.18;2.58;;;8.80;99.90;;;;;;5103652;28;20456;-85
2023/04/29 07:02:32;;;;;;;3.20;1.95;;;8.80;99.90;;;;;;5100658;28;20427;-82
2023/04/29 07:05:00;;;;;;;2.38;1.75;;;8.80;99.90;;;;;;5087128;28;20050;-81
2023/04/29 07:07:52;;;;;;;6.75;1.63;;;8.70;99.90;;;;;;5103622;28;20590;-81
2023/04/29 07:10:23;;;;;;;1.88;1.77;;;8.70;99.90;;;;;;5108447;28;20047;-84
2023/04/29 07:12:50;;;;;;;10.10;2.38;;;8.80;99.90;;;;;;5106334;28;20040;-83
2023/04/29 07:15:17;;;;;;;1.83;1.73;;;8.80;99.90;;;;;;5108036;28;20711;-83
2023/04/29 07:17:45;;;;;;;4.60;2.05;;;9.00;99.90;;;;;;5107220;28;20062;-85
2023/04/29 07:20:13;;;;;;;2.85;1.60;;;9.60;99.90;;;;;;5106953;27;20533;-83
2023/04/29 07:22:41;;;;;;;8.57;1.80;;;10.30;99.90;;;;;;5086809;28;20580;-82
2023/04/29 07:25:10;;;;;;;5.93;2.20;;;10.70;99.90;;;;;;5106759;28;20420;-82
2023/04/29 07:27:41;;;;;;;3.50;2.03;;;10.70;99.90;;;;;;5109228;28;20039;-86
2023/04/29 07:30:09;;;;;;;2.65;1.55;;;10.70;99.90;;;;;;5105067;28;20040;-83
2023/04/29 07:32:36;;;;;;;1.38;1.27;;;10.40;99.90;;;;;;5085909;28;20131;-82
2023/04/29 07:35:07;;;;;;;1.52;1.20;;;10.00;99.90;;;;;;5096499;28;20036;-80
2023/04/29 07:37:35;;;;;;;4.15;1.38;;;9.50;99.90;;;;;;5085256;28;20077;-80
2023/04/29 07:40:02;;;;;;;6.28;2.30;;;9.30;99.90;;;;;;5110432;28;20047;-80
2023/04/29 07:42:33;;;;;;;4.97;2.78;;;9.10;99.90;;;;;;5121588;27;20054;-81
2023/04/29 07:45:00;;;;;;;5.60;2.50;;;9.10;99.90;;;;;;5108046;28;20040;-82
2023/04/29 07:47:30;;;;;;;4.97;2.80;;;9.40;99.90;;;;;;5101107;27;20052;-81
2023/04/29 07:49:58;;;;;;;5.82;1.75;;;9.70;99.90;;;;;;5091401;28;20446;-81
2023/04/29 07:52:27;;;;;;;4.22;2.40;;;9.70;99.90;;;;;;5091189;28;20040;-80
2023/04/29 07:54:55;;;;;;;7.32;2.60;;;9.60;99.90;;;;;;5099968;28;20048;-79
2023/04/29 07:57:23;;;;;;;6.93;2.92;;;9.60;99.90;;;;;;5102645;28;20048;-80
2023/04/29 07:59:53;;;;;;;2.85;2.15;;;9.60;99.90;;;;;;5108007;28;20146;-79
2023/04/29 08:02:22;;;;;;;4.10;2.17;;;9.50;99.90;;;;;;5106740;27;20039;-77
2023/04/29 08:04:50;;;;;;;11.82;2.03;;;9.40;99.90;;;;;;5110882;28;20130;-77
2023/04/29 08:07:18;;;;;;;2.65;1.50;;;9.20;99.90;;;;;;5109420;28;20074;-73
2023/04/29 08:09:45;;;;;;;1.65;1.13;;;9.00;99.90;;;;;;5110838;28;20050;-75
2023/04/29 08:12:12;;;;;;;1.88;0.90;;;9.00;99.90;;;;;;5109365;28;20051;-82
2023/04/29 08:14:41;;;;;;;1.02;0.80;;;9.00;99.90;;;;;;5110712;28;20035;-79
2023/04/29 08:17:10;;;;;;;4.78;1.33;;;9.10;99.90;;;;;;5109199;28;20043;-79
2023/04/29 08:19:37;;;;;;;1.52;1.17;;;9.30;99.90;;;;;;5111539;28;20484;-79
2023/04/29 08:22:05;;;;;;;2.45;1.27;;;9.40;99.90;;;;;;5089913;28;20055;-82
2023/04/29 08:24:33;;;;;;;1.73;1.13;;;9.30;99.90;;;;;;5103140;28;20054;-80
2023/04/29 08:27:02;;;;;;;5.40;1.00;;;9.10;99.90;;;;;;5090909;28;20043;-84
2023/04/29 08:29:32;;;;;;;4.75;0.90;;;8.80;99.90;;;;;;5102382;28;20044;-74
2023/04/29 08:32:00;;;;;;;1.98;0.60;;;8.50;99.90;;;;;;5092126;28;20333;-80
2023/04/29 08:34:29;;;;;;;0.82;0.63;;;8.40;99.90;;;;;;5100855;28;20040;-82
2023/04/29 08:36:57;;;;;;;0.93;0.50;;;8.20;99.90;;;;;;5099574;28;20126;-80
2023/04/29 08:39:25;;;;;;;0.68;0.52;;;8.00;99.90;;;;;;5102922;28;20043;-80
2023/04/29 08:41:53;;;;;;;0.68;0.47;;;7.80;99.90;;;;;;5104019;28;20214;-78
2023/04/29 08:44:25;;;;;;;1.40;0.40;;;7.50;99.90;;;;;;5104341;28;20055;-78
2023/04/29 08:46:53;;;;;;;0.43;0.40;;;7.40;99.90;;;;;;5100576;28;20101;-79
2023/04/29 08:49:23;;;;;;;2.17;0.70;;;7.10;99.90;;;;;;5087722;28;20047;-80
2023/04/29 08:51:53;;;;;;;0.93;0.55;;;7.00;99.90;;;;;;5100308;28;20077;-79
2023/04/29 08:54:20;;;;;;;1.35;0.75;;;6.70;99.90;;;;;;5106734;27;20039;-82
2023/04/29 08:56:49;;;;;;;2.20;0.63;;;6.50;99.90;;;;;;5106160;28;20139;-79
2023/04/29 08:59:18;;;;;;;2.47;0.70;;;6.70;99.90;;;;;;5107409;28;20056;-80
2023/04/29 09:01:50;;;;;;;1.45;0.93;;;7.20;99.90;;;;;;5102520;28;20051;-76
2023/04/29 09:04:30;;;;;;;3.13;1.55;;;8.00;99.90;;;;;;5104662;28;20047;-78
2023/04/29 09:07:00;;;;;;;3.45;2.17;;;9.20;99.90;;;;;;5108082;28;20048;-79
2023/04/29 09:09:28;;;;;;;1.40;1.30;;;9.60;99.90;;;;;;5103663;27;20112;-82
2023/04/29 09:11:58;;;;;;;1.95;1.15;;;9.90;99.90;;;;;;5102257;28;20052;-83
2023/04/29 09:14:26;;;;;;;1.20;1.10;;;10.00;99.90;;;;;;5084907;28;20479;-81
2023/04/29 09:16:53;;;;;;;0.90;0.90;;;9.90;99.90;;;;;;5092375;28;20044;-80
2023/04/29 09:19:31;;;;;;;3.83;1.17;;;9.90;99.90;;;;;;5105802;28;20035;-78
2023/04/29 09:22:00;;;;;;;1.88;1.33;;;10.50;99.90;;;;;;5097915;28;20063;-81
2023/04/29 09:24:29;;;;;;;3.10;1.17;;;10.70;99.90;;;;;;5102859;27;20425;-78
2023/04/29 09:26:57;;;;;;;3.08;0.70;;;10.40;99.90;;;;;;5103290;28;20051;-80
2023/04/29 09:29:25;;;;;;;0.80;0.80;;;10.00;99.90;;;;;;5104696;28;20039;-82
2023/04/29 09:31:53;;;;;;;0.60;0.60;;;9.50;99.90;;;;;;5104278;27;20071;-77
2023/04/29 09:34:31;;;;;;;0.60;0.60;;;9.40;99.90;;;;;;5105098;28;20498;-80
2023/04/29 09:37:00;;;;;;;3.10;0.50;;;9.60;99.90;;;;;;5099399;27;20048;-79
2023/04/29 09:39:37;;;;;;;0.80;0.57;;;9.40;99.90;;;;;;5103808;28;20601;-81
2023/04/29 09:42:07;;;;;;;1.70;0.88;;;9.20;99.90;;;;;;5105927;28;20051;-78
2023/04/29 09:44:36;;;;;;;1.85;0.70;;;9.00;99.90;;;;;;5108155;28;20044;-78
2023/04/29 09:47:05;;;;;;;0.47;0.47;;;9.60;99.90;;;;;;5108322;28;20036;-80
2023/04/29 09:49:36;;;;;;;8.35;1.10;;;9.70;99.90;;;;;;5103025;28;20049;-79
2023/04/29 09:52:06;;;;;;;0.80;0.80;;;9.60;99.90;;;;;;5083195;28;20047;-77
2023/04/29 09:54:36;;;;;;;1.27;1.17;;;9.40;99.90;;;;;;5099850;28;20054;-77
2023/04/29 09:57:05;;;;;;;1.30;0.95;;;9.40;99.90;;;;;;5103027;28;20504;-78
2023/04/29 09:59:34;;;;;;;0.95;0.60;;;9.60;99.90;;;;;;5099876;28;20095;-76
2023/04/29 10:02:14;;;;;;;0.60;0.57;;;9.90;99.90;;;;;;5100678;28;20043;-78
2023/04/29 10:04:44;;;;;;;0.77;0.70;;;10.30;99.90;;;;;;5097694;28;20512;-80
2023/04/29 10:07:16;;;;;;;1.50;0.52;;;10.80;99.90;;;;;;5098128;28;20525;-82
2023/04/29 10:09:44;;;;;;;0.80;0.57;;;10.70;99.90;;;;;;5101038;28;20090;-83
2023/04/29 10:12:20;;;;;;;1.00;0.60;;;10.30;99.90;;;;;;5101291;28;20074;-83
2023/04/29 10:14:55;;;;;;;1.67;0.50;;;10.10;99.90;;;;;;5110510;28;20047;-79
2023/04/29 10:17:29;;;;;;;2.72;0.50;;;10.10;99.90;;;;;;5110857;28;20062;-79
2023/04/29 10:20:04;;;;;;;0.55;0.50;;;10.10;99.90;;;;;;5108505;28;20066;-80
2023/04/29 10:22:43;;;;;;;2.50;0.80;;;10.00;99.90;;;;;;5110233;28;20054;-80
2023/04/29 10:25:11;;;;;;;1.10;0.65;;;9.70;99.90;;;;;;5106117;28;20051;-78
2023/04/29 10:27:41;;;;;;;0.75;0.70;;;9.90;99.90;;;;;;5086378;28;20039;-79
2023/04/29 10:30:13;;;;;;;1.20;1.10;;;10.70;99.90;;;;;;5105087;28;20475;-78
2023/04/29 10:32:42;;;;;;;6.20;1.00;;;11.90;99.90;;;;;;5108907;28;20392;-85
2023/04/29 10:35:10;;;;;;;3.45;0.80;;;13.30;99.90;;;;;;5107785;28;20139;-84
2023/04/29 10:37:39;;;;;;;5.63;1.10;;;13.40;98.20;;;;;;5079507;28;20072;-78
2023/04/29 10:40:14;;;;;;;4.00;0.80;;;12.60;97.90;;;;;;5090976;28;20067;-80
2023/04/29 10:42:45;;;;;;;2.90;0.75;;;11.60;99.90;;;;;;5107676;28;20525;-82
2023/04/29 10:45:25;;;;;;;2.75;0.90;;;10.50;99.90;;;;;;5109344;28;20520;-85
2023/04/29 10:48:12;;;;;;;2.30;0.63;;;9.80;99.90;;;;;;5090247;28;20052;-85
2023/04/29 10:51:02;;;;;;;1.63;0.80;;;9.90;99.90;;;;;;5097692;28;20112;-91
2023/04/29 10:53:31;;;;;;;4.20;0.88;;;12.10;99.90;;;;;;5113087;28;20134;-86
2023/04/29 10:56:05;;;;;;;4.25;0.80;;;14.40;99.50;;;;;;5095670;28;20535;-88
2023/04/29 10:58:43;;;;;;;3.67;1.08;;;16.00;92.90;;;;;;5093018;28;20048;-86
2023/04/29 11:01:13;;;;;;;4.40;0.70;;;17.00;84.50;;;;;;5107924;28;20415;-86
2023/04/29 11:03:53;;;;;;;1.88;0.80;;;17.60;79.70;;;;;;5108894;28;20138;-86
2023/04/29 11:06:24;;;;;;;5.93;1.10;;;16.90;69.00;;;;;;5092400;28;20508;-87
2023/04/29 11:09:02;;;;;;;6.68;0.70;;;15.30;71.70;;;;;;5110494;28;20090;-87
2023/04/29 11:11:42;;;;;;;1.85;0.88;;;14.30;76.20;;;;;;5116084;28;20052;-86
2023/04/29 11:14:11;;;;;;;2.15;0.85;;;14.00;80.60;;;;;;5114555;28;20071;-88
2023/04/29 11:16:38;;;;;;;1.05;0.75;;;15.10;79.60;;;;;;5114048;28;20396;-87
2023/04/29 11:19:08;;;;;;;2.35;0.90;;;16.00;76.50;;;;;;5114418;28;20047;-86
2023/04/29 11:21:36;;;;;;;2.85;0.90;;;17.40;70.00;;;;;;5112527;28;20469;-85
2023/04/29 11:24:07;;;;;;;5.07;1.00;;;18.60;65.60;;;;;;5112840;28;20078;-86
2023/04/29 11:26:35;;;;;;;0.93;0.73;;;19.30;61.90;;;;;;5113680;28;20146;-84
2023/04/29 11:29:02;;;;;;;2.13;1.13;;;18.40;60.00;;;;;;5105440;28;20046;-85
2023/04/29 11:31:31;;;;;;;5.47;1.10;;;17.80;63.40;;;;;;5111248;28;20427;-82
2023/04/29 11:33:58;;;;;;;2.22;0.98;;;18.10;61.60;;;;;;5114977;28;20051;-86
2023/04/29 11:36:26;;;;;;;1.50;1.10;;;17.70;61.30;;;;;;5113805;28;20056;-86
2023/04/29 11:38:54;;;;;;;2.25;1.02;;;16.80;62.10;;;;;;5112246;28;20048;-85
2023/04/29 11:41:23;;;;;;;3.03;1.35;;;17.10;63.50;;;;;;5113160;28;20618;-83
2023/04/29 11:43:58;;;;;;;1.98;1.38;;;17.70;62.40;;;;;;5101235;28;20104;-83
2023/04/29 11:46:30;;;;;;;5.07;1.38;;;18.90;60.70;;;;;;5095362;28;20130;-88
2023/04/29 11:48:59;;;;;;;2.35;0.90;;;20.70;56.70;;;;;;5113007;27;20048;-85
2023/04/29 11:51:27;;;;;;;2.05;1.15;;;21.50;54.80;;;;;;5109835;28;20523;-86
2023/04/29 11:53:56;;;;;;;2.40;1.10;;;21.90;54.30;;;;;;5104805;28;20518;-88
2023/04/29 11:56:25;;;;;;;1.52;1.10;;;22.50;52.20;;;;;;5110681;28;20092;-86
2023/04/29 11:58:56;;;;;;;4.35;1.00;;;23.00;51.10;;;;;;5112272;28;20158;-86
2023/04/29 12:01:26;;;;;;;3.13;1.10;;;23.60;49.90;;;;;;5100027;28;20051;-88
2023/04/29 12:03:59;;;;;;;0.98;0.98;;;23.10;49.90;;;;;;5115390;28;20141;-89
2023/04/29 12:06:30;;;;;;;2.63;0.90;;;21.30;51.70;;;;;;5113668;28;20058;-86
2023/04/29 12:09:00;;;;;;;2.88;1.27;;;21.30;53.60;;;;;;5108994;28;20050;-87
2023/04/29 12:11:29;;;;;;;4.75;1.02;;;22.20;51.70;;;;;;5102625;28;20497;-82
2023/04/29 12:13:56;;;;;;;8.90;1.17;;;23.20;50.20;;;;;;5111483;28;20051;-85
2023/04/29 12:16:25;;;;;;;11.25;1.45;;;23.60;49.80;;;;;;5110015;28;20067;-85
2023/04/29 12:18:53;;;;;;;5.38;1.10;;;23.90;49.10;;;;;;5107325;28;20055;-80
2023/04/29 12:21:22;;;;;;;3.05;1.02;;;24.30;48.00;;;;;;5098441;28;20049;-80
2023/04/29 12:23:51;;;;;;;1.88;1.02;;;24.60;47.40;;;;;;5103562;28;20060;-77
2023/04/29 12:26:19;;;;;;;2.65;1.08;;;24.90;47.00;;;;;;5106815;27;20403;-76
2023/04/29 12:28:49;;;;;;;2.53;0.95;;;25.10;46.50;;;;;;5108071;28;20411;-77
2023/04/29 12:31:16;;;;;;;3.50;1.65;;;24.90;46.00;;;;;;5107754;28;20438;-77
2023/04/29 12:34:01;;;;;;;2.25;1.30;;;24.80;46.10;;;;;;5106304;28;20039;-83
2023/04/29 12:36:36;;;;;;;4.88;1.02;;;25.10;45.90;;;;;;5109806;27;20043;-81
2023/04/29 12:39:09;;;;;;;1.65;1.00;;;25.60;45.10;;;;;;5109220;28;20466;-82
2023/04/29 12:41:36;;;;;;;;;;;25.90;44.50;;;;;;5099629;28;20512;-77
2023/04/29 12:44:10;;;;;;;4.68;1.10;;;25.90;44.20;;;;;;5102935;28;19949;-79
2023/04/29 12:46:39;;;;;;;2.80;1.00;;;25.50;44.30;;;;;;5108308;28;20047;-79
2023/04/29 12:49:08;;;;;;;2.78;0.90;;;25.30;44.40;;;;;;5097379;28;20048;-80
2023/04/29 12:51:36;;;;;;;1.60;1.10;;;24.80;44.70;;;;;;5105677;28;20449;-80
2023/04/29 12:54:05;;;;;;;3.03;1.35;;;24.80;44.90;;;;;;5103687;27;20047;-76
2023/04/29 12:56:33;;;;;;;1.50;0.95;;;25.30;44.20;;;;;;5102321;28;20047;-75
2023/04/29 12:59:07;;;;;;;2.35;1.15;;;25.30;43.40;;;;;;5104305;28;20648;-76
2023/04/29 13:01:35;;;;;;;3.95;1.17;;;25.30;43.90;;;;;;5106865;27;20093;-77
2023/04/29 13:04:03;;;;;;;3.50;0.90;;;25.50;43.60;;;;;;5109491;28;20051;-77
2023/04/29 13:06:31;;;;;;;3.97;1.23;;;25.90;43.40;;;;;;5109618;27;20035;-77
2023/04/29 13:08:59;;;;;;;2.75;1.70;;;25.90;43.00;;;;;;5112289;28;20138;-75
2023/04/29 13:11:26;;;;;;;3.20;1.38;;;25.70;43.10;;;;;;5105920;28;20047;-83